createdAt,value
2023-02-04T00:01:33.470Z,99659.87
2023-02-04T00:23:19.323Z,99698.70
2023-02-04T00:45:07.493Z,99743.52
2023-02-04T01:06:53.601Z,99798.23
2023-02-04T01:28:39.921Z,99854.52
2023-02-04T01:50:26.246Z,99921.91
2023-02-04T02:12:12.730Z,100097.45
2023-02-04T02:33:58.702Z,100246.59
2023-02-04T02:55:45.755Z,100379.23
2023-02-04T03:17:35.857Z,100501.54
2023-02-04T03:39:21.779Z,100625.11
2023-02-04T04:01:07.853Z,100749.84
2023-02-04T04:22:53.809Z,100843.38
2023-02-04T04:44:41.056Z,100913.48
2023-02-04T05:06:27.088Z,101010.02
2023-02-04T05:28:15.631Z,101093.05
2023-02-04T05:50:01.631Z,101171.36
2023-02-04T06:11:47.453Z,101236.25
2023-02-04T06:33:33.698Z,101315.03
2023-02-04T06:55:20.611Z,101403.81
2023-02-04T07:17:06.585Z,101480.86
2023-02-04T07:38:57.729Z,101545.61
2023-02-04T08:00:43.541Z,101582.49
2023-02-04T08:22:30.150Z,101606.57
2023-02-04T08:44:18.307Z,101636.91
2023-02-04T09:06:04.904Z,101656.70
2023-02-04T09:27:51.857Z,101679.23
2023-02-04T09:49:38.286Z,101706.03
2023-02-04T10:11:32.686Z,101728.97
2023-02-04T10:33:25.898Z,101742.85
2023-02-04T10:55:17.803Z,101764.81
2023-02-04T11:17:04.965Z,101784.27
2023-02-04T11:38:52.365Z,101813.36
2023-02-04T12:00:38.769Z,101831.95
2023-02-04T12:22:27.350Z,101848.14
2023-02-04T12:44:17.580Z,101878.60
2023-02-04T13:06:03.446Z,101869.19
2023-02-04T13:27:49.329Z,101893.23
2023-02-04T13:49:38.044Z,101904.33
2023-02-04T14:11:23.850Z,101935.30
2023-02-04T14:33:11.360Z,101951.23
2023-02-04T14:54:57.695Z,101961.93
2023-02-04T15:16:45.172Z,101970.53
2023-02-04T15:38:31.594Z,101983.01
2023-02-04T16:00:21.189Z,102004.10
2023-02-04T16:22:07.280Z,102014.04
2023-02-04T16:43:53.634Z,102038.48
2023-02-04T17:05:41.485Z,102047.55
2023-02-04T17:27:27.625Z,102057.98
2023-02-04T17:49:13.388Z,102072.34
2023-02-04T18:10:59.159Z,102081.75
2023-02-04T18:32:47.908Z,102099.35
2023-02-04T18:54:36.989Z,102131.84
2023-02-04T19:16:27.042Z,102143.28
2023-02-04T19:38:38.506Z,102151.81
2023-02-04T20:00:41.145Z,102168.23
2023-02-04T20:22:51.582Z,102181.70
2023-02-04T20:44:42.917Z,102198.62
2023-02-04T21:06:31.664Z,102228.98
2023-02-04T21:28:18.130Z,102234.84
2023-02-04T21:50:03.944Z,102241.33
2023-02-04T22:11:53.232Z,102254.15
2023-02-04T22:33:39.623Z,102273.58
2023-02-04T22:55:25.701Z,102283.56
2023-02-04T23:17:11.590Z,102280.88
2023-02-04T23:38:59.147Z,102268.95
